sensor_id;sensor_type;location;lat;lon;timestamp;temperature;humidity
66144;SHT31;52947;50.842;6.084;2023-03-04T00:00:32;1.30;86.25
66144;SHT31;52947;50.842;6.084;2023-03-04T00:03:00;1.30;86.28
66144;SHT31;52947;50.842;6.084;2023-03-04T00:05:28;1.26;86.32
66144;SHT31;52947;50.842;6.084;2023-03-04T00:07:56;1.26;86.33
66144;SHT31;52947;50.842;6.084;2023-03-04T00:10:24;1.27;86.50
66144;SHT31;52947;50.842;6.084;2023-03-04T00:12:52;1.31;86.24
66144;SHT31;52947;50.842;6.084;2023-03-04T00:15:21;1.29;86.55
66144;SHT31;52947;50.842;6.084;2023-03-04T00:17:49;1.37;86.27
66144;SHT31;52947;50.842;6.084;2023-03-04T00:20:17;1.34;86.19
66144;SHT31;52947;50.842;6.084;2023-03-04T00:22:45;1.33;86.25
66144;SHT31;52947;50.842;6.084;2023-03-04T00:25:13;1.37;86.41
66144;SHT31;52947;50.842;6.084;2023-03-04T00:27:41;1.29;86.31
66144;SHT31;52947;50.842;6.084;2023-03-04T00:30:10;1.31;86.48
66144;SHT31;52947;50.842;6.084;2023-03-04T00:32:40;1.34;86.37
66144;SHT31;52947;50.842;6.084;2023-03-04T00:35:08;1.33;86.25
66144;SHT31;52947;50.842;6.084;2023-03-04T00:37:36;1.29;86.45
66144;SHT31;52947;50.842;6.084;2023-03-04T00:40:05;1.27;86.49
66144;SHT31;52947;50.842;6.084;2023-03-04T00:42:33;1.34;86.35
66144;SHT31;52947;50.842;6.084;2023-03-04T00:45:01;1.23;86.81
66144;SHT31;52947;50.842;6.084;2023-03-04T00:47:29;1.33;86.25
66144;SHT31;52947;50.842;6.084;2023-03-04T00:49:58;1.27;86.32
66144;SHT31;52947;50.842;6.084;2023-03-04T00:52:26;1.37;86.44
66144;SHT31;52947;50.842;6.084;2023-03-04T00:54:54;1.33;86.24
66144;SHT31;52947;50.842;6.084;2023-03-04T00:57:22;1.31;86.43
66144;SHT31;52947;50.842;6.084;2023-03-04T00:59:49;1.27;86.35
66144;SHT31;52947;50.842;6.084;2023-03-04T01:02:17;1.23;86.59
66144;SHT31;52947;50.842;6.084;2023-03-04T01:04:45;1.23;86.98
66144;SHT31;52947;50.842;6.084;2023-03-04T01:07:15;1.31;86.65
66144;SHT31;52947;50.842;6.084;2023-03-04T01:09:43;1.34;86.33
66144;SHT31;52947;50.842;6.084;2023-03-04T01:12:11;1.39;86.51
66144;SHT31;52947;50.842;6.084;2023-03-04T01:14:39;1.48;86.27
66144;SHT31;52947;50.842;6.084;2023-03-04T01:17:07;1.52;86.21
66144;SHT31;52947;50.842;6.084;2023-03-04T01:19:35;1.57;86.02
66144;SHT31;52947;50.842;6.084;2023-03-04T01:22:03;1.47;86.08
66144;SHT31;52947;50.842;6.084;2023-03-04T01:24:32;1.40;86.15
66144;SHT31;52947;50.842;6.084;2023-03-04T01:27:00;1.39;86.30
66144;SHT31;52947;50.842;6.084;2023-03-04T01:29:28;1.44;85.95
66144;SHT31;52947;50.842;6.084;2023-03-04T01:31:56;1.36;86.22
66144;SHT31;52947;50.842;6.084;2023-03-04T01:34:24;1.40;86.41
66144;SHT31;52947;50.842;6.084;2023-03-04T01:36:52;1.48;86.07
66144;SHT31;52947;50.842;6.084;2023-03-04T01:39:19;1.50;86.14
66144;SHT31;52947;50.842;6.084;2023-03-04T01:41:51;1.58;85.89
66144;SHT31;52947;50.842;6.084;2023-03-04T01:44:19;1.57;85.86
66144;SHT31;52947;50.842;6.084;2023-03-04T01:46:49;1.46;86.17
66144;SHT31;52947;50.842;6.084;2023-03-04T01:49:18;1.52;86.09
66144;SHT31;52947;50.842;6.084;2023-03-04T01:51:49;1.46;86.29
66144;SHT31;52947;50.842;6.084;2023-03-04T01:54:19;1.47;86.15
66144;SHT31;52947;50.842;6.084;2023-03-04T01:56:50;1.51;86.25
66144;SHT31;52947;50.842;6.084;2023-03-04T01:59:21;1.52;86.25
66144;SHT31;52947;50.842;6.084;2023-03-04T02:01:51;1.50;86.59
66144;SHT31;52947;50.842;6.084;2023-03-04T02:04:21;1.55;86.25
66144;SHT31;52947;50.842;6.084;2023-03-04T02:06:51;1.54;86.46
66144;SHT31;52947;50.842;6.084;2023-03-04T02:09:20;1.58;86.41
66144;SHT31;52947;50.842;6.084;2023-03-04T02:11:49;1.70;85.87
66144;SHT31;52947;50.842;6.084;2023-03-04T02:14:19;1.71;85.99
66144;SHT31;52947;50.842;6.084;2023-03-04T02:16:47;1.70;86.20
66144;SHT31;52947;50.842;6.084;2023-03-04T02:19:24;1.74;85.56
66144;SHT31;52947;50.842;6.084;2023-03-04T02:21:55;1.71;85.87
66144;SHT31;52947;50.842;6.084;2023-03-04T02:24:26;1.82;85.82
66144;SHT31;52947;50.842;6.084;2023-03-04T02:26:57;1.77;85.55
66144;SHT31;52947;50.842;6.084;2023-03-04T02:29:27;1.74;85.83
66144;SHT31;52947;50.842;6.084;2023-03-04T02:31:55;1.70;85.78
66144;SHT31;52947;50.842;6.084;2023-03-04T02:34:26;1.71;86.06
66144;SHT31;52947;50.842;6.084;2023-03-04T02:36:56;1.74;85.98
66144;SHT31;52947;50.842;6.084;2023-03-04T02:39:29;1.81;85.77
66144;SHT31;52947;50.842;6.084;2023-03-04T02:42:00;1.88;85.63
66144;SHT31;52947;50.842;6.084;2023-03-04T02:44:32;1.77;85.83
66144;SHT31;52947;50.842;6.084;2023-03-04T02:47:01;1.77;86.11
66144;SHT31;52947;50.842;6.084;2023-03-04T02:49:31;1.81;85.87
66144;SHT31;52947;50.842;6.084;2023-03-04T02:52:01;1.88;85.84
66144;SHT31;52947;50.842;6.084;2023-03-04T02:54:31;2.01;85.50
66144;SHT31;52947;50.842;6.084;2023-03-04T02:57:02;1.99;85.27
66144;SHT31;52947;50.842;6.084;2023-03-04T02:59:32;1.98;85.54
66144;SHT31;52947;50.842;6.084;2023-03-04T03:02:03;2.02;85.25
66144;SHT31;52947;50.842;6.084;2023-03-04T03:04:31;2.02;85.18
66144;SHT31;52947;50.842;6.084;2023-03-04T03:07:00;2.05;85.30
66144;SHT31;52947;50.842;6.084;2023-03-04T03:09:28;2.03;85.46
66144;SHT31;52947;50.842;6.084;2023-03-04T03:11:56;2.01;85.32
66144;SHT31;52947;50.842;6.084;2023-03-04T03:14:26;2.08;85.17
66144;SHT31;52947;50.842;6.084;2023-03-04T03:16:54;2.01;85.41
66144;SHT31;52947;50.842;6.084;2023-03-04T03:19:22;2.01;85.62
66144;SHT31;52947;50.842;6.084;2023-03-04T03:21:51;1.99;85.51
66144;SHT31;52947;50.842;6.084;2023-03-04T03:24:19;2.13;85.22
66144;SHT31;52947;50.842;6.084;2023-03-04T03:26:47;2.12;85.17
66144;SHT31;52947;50.842;6.084;2023-03-04T03:29:15;2.09;84.97
66144;SHT31;52947;50.842;6.084;2023-03-04T03:31:44;2.05;85.12
66144;SHT31;52947;50.842;6.084;2023-03-04T03:34:12;2.02;85.23
66144;SHT31;52947;50.842;6.084;2023-03-04T03:36:40;2.03;85.44
66144;SHT31;52947;50.842;6.084;2023-03-04T03:39:08;2.09;85.35
66144;SHT31;52947;50.842;6.084;2023-03-04T03:41:36;2.06;85.29
66144;SHT31;52947;50.842;6.084;2023-03-04T03:44:04;2.01;85.52
66144;SHT31;52947;50.842;6.084;2023-03-04T03:46:32;2.09;85.53
66144;SHT31;52947;50.842;6.084;2023-03-04T03:49:02;2.21;84.87
66144;SHT31;52947;50.842;6.084;2023-03-04T03:51:30;2.09;85.23
66144;SHT31;52947;50.842;6.084;2023-03-04T03:53:57;2.15;85.31
66144;SHT31;52947;50.842;6.084;2023-03-04T03:56:25;2.33;85.03
66144;SHT31;52947;50.842;6.084;2023-03-04T03:58:53;2.33;84.70
66144;SHT31;52947;50.842;6.084;2023-03-04T04:01:21;2.25;84.96
66144;SHT31;52947;50.842;6.084;2023-03-04T04:03:49;2.16;84.91
66144;SHT31;52947;50.842;6.084;2023-03-04T04:06:18;2.15;85.41
66144;SHT31;52947;50.842;6.084;2023-03-04T04:08:46;2.30;85.16
66144;SHT31;52947;50.842;6.084;2023-03-04T04:11:14;2.34;85.10
66144;SHT31;52947;50.842;6.084;2023-03-04T04:13:42;2.25;85.09
66144;SHT31;52947;50.842;6.084;2023-03-04T04:16:10;2.22;85.21
66144;SHT31;52947;50.842;6.084;2023-03-04T04:18:38;2.18;85.48
66144;SHT31;52947;50.842;6.084;2023-03-04T04:21:06;2.18;85.41
66144;SHT31;52947;50.842;6.084;2023-03-04T04:23:35;2.22;85.36
66144;SHT31;52947;50.842;6.084;2023-03-04T04:26:03;2.23;85.22
66144;SHT31;52947;50.842;6.084;2023-03-04T04:28:31;2.29;85.05
66144;SHT31;52947;50.842;6.084;2023-03-04T04:30:59;2.28;85.19
66144;SHT31;52947;50.842;6.084;2023-03-04T04:33:27;2.23;85.13
66144;SHT31;52947;50.842;6.084;2023-03-04T04:35:55;2.21;85.52
66144;SHT31;52947;50.842;6.084;2023-03-04T04:38:23;2.29;85.38
66144;SHT31;52947;50.842;6.084;2023-03-04T04:40:52;2.32;85.25
66144;SHT31;52947;50.842;6.084;2023-03-04T04:43:23;2.32;85.21
66144;SHT31;52947;50.842;6.084;2023-03-04T04:45:51;2.23;85.46
66144;SHT31;52947;50.842;6.084;2023-03-04T04:48:19;2.22;85.64
66144;SHT31;52947;50.842;6.084;2023-03-04T04:50:53;2.22;85.56
66144;SHT31;52947;50.842;6.084;2023-03-04T04:53:21;2.21;85.56
66144;SHT31;52947;50.842;6.084;2023-03-04T04:55:48;2.22;85.56
66144;SHT31;52947;50.842;6.084;2023-03-04T04:58:18;2.22;85.71
66144;SHT31;52947;50.842;6.084;2023-03-04T05:00:45;2.28;85.66
66144;SHT31;52947;50.842;6.084;2023-03-04T05:03:13;2.28;85.54
66144;SHT31;52947;50.842;6.084;2023-03-04T05:05:44;2.34;85.38
66144;SHT31;52947;50.842;6.084;2023-03-04T05:08:11;2.46;85.10
66144;SHT31;52947;50.842;6.084;2023-03-04T05:10:39;2.49;85.12
66144;SHT31;52947;50.842;6.084;2023-03-04T05:13:07;2.54;85.16
66144;SHT31;52947;50.842;6.084;2023-03-04T05:15:37;2.50;85.15
66144;SHT31;52947;50.842;6.084;2023-03-04T05:18:05;2.52;85.18
66144;SHT31;52947;50.842;6.084;2023-03-04T05:20:33;2.54;84.99
66144;SHT31;52947;50.842;6.084;2023-03-04T05:23:01;2.57;85.02
66144;SHT31;52947;50.842;6.084;2023-03-04T05:25:29;2.57;84.97
66144;SHT31;52947;50.842;6.084;2023-03-04T05:27:57;2.60;85.01
66144;SHT31;52947;50.842;6.084;2023-03-04T05:30:27;2.70;84.49
66144;SHT31;52947;50.842;6.084;2023-03-04T05:32:56;2.71;84.54
66144;SHT31;52947;50.842;6.084;2023-03-04T05:35:24;2.73;84.49
66144;SHT31;52947;50.842;6.084;2023-03-04T05:37:54;2.74;84.42
66144;SHT31;52947;50.842;6.084;2023-03-04T05:40:22;2.76;84.53
66144;SHT31;52947;50.842;6.084;2023-03-04T05:42:51;2.81;84.47
66144;SHT31;52947;50.842;6.084;2023-03-04T05:45:19;2.73;84.58
66144;SHT31;52947;50.842;6.084;2023-03-04T05:47:47;2.79;84.57
66144;SHT31;52947;50.842;6.084;2023-03-04T05:50:17;2.80;84.61
66144;SHT31;52947;50.842;6.084;2023-03-04T05:52:45;2.76;84.52
66144;SHT31;52947;50.842;6.084;2023-03-04T05:55:13;2.79;84.74
66144;SHT31;52947;50.842;6.084;2023-03-04T05:57:42;2.80;84.73
66144;SHT31;52947;50.842;6.084;2023-03-04T06:00:10;2.71;84.77
66144;SHT31;52947;50.842;6.084;2023-03-04T06:02:39;2.67;84.87
66144;SHT31;52947;50.842;6.084;2023-03-04T06:05:09;2.68;85.10
66144;SHT31;52947;50.842;6.084;2023-03-04T06:07:39;2.77;84.80
66144;SHT31;52947;50.842;6.084;2023-03-04T06:10:09;2.71;84.75
66144;SHT31;52947;50.842;6.084;2023-03-04T06:12:38;2.70;84.90
66144;SHT31;52947;50.842;6.084;2023-03-04T06:15:06;2.74;85.10
66144;SHT31;52947;50.842;6.084;2023-03-04T06:17:36;2.83;84.95
66144;SHT31;52947;50.842;6.084;2023-03-04T06:20:09;2.80;84.90
66144;SHT31;52947;50.842;6.084;2023-03-04T06:22:38;2.83;84.95
66144;SHT31;52947;50.842;6.084;2023-03-04T06:25:06;2.87;84.80
66144;SHT31;52947;50.842;6.084;2023-03-04T06:27:34;2.87;84.90
66144;SHT31;52947;50.842;6.084;2023-03-04T06:30:03;2.91;85.04
66144;SHT31;52947;50.842;6.084;2023-03-04T06:32:31;3.01;84.64
66144;SHT31;52947;50.842;6.084;2023-03-04T06:34:59;3.03;84.72
66144;SHT31;52947;50.842;6.084;2023-03-04T06:37:27;3.08;84.53
66144;SHT31;52947;50.842;6.084;2023-03-04T06:39:56;3.07;84.62
66144;SHT31;52947;50.842;6.084;2023-03-04T06:42:24;3.08;84.58
66144;SHT31;52947;50.842;6.084;2023-03-04T06:44:52;3.08;84.62
66144;SHT31;52947;50.842;6.084;2023-03-04T06:47:20;3.12;84.60
66144;SHT31;52947;50.842;6.084;2023-03-04T06:49:48;3.21;84.34
66144;SHT31;52947;50.842;6.084;2023-03-04T06:52:16;3.25;84.26
66144;SHT31;52947;50.842;6.084;2023-03-04T06:54:44;3.28;84.24
66144;SHT31;52947;50.842;6.084;2023-03-04T06:57:13;3.32;84.05
66144;SHT31;52947;50.842;6.084;2023-03-04T06:59:41;3.38;84.15
66144;SHT31;52947;50.842;6.084;2023-03-04T07:02:10;3.34;83.95
66144;SHT31;52947;50.842;6.084;2023-03-04T07:04:38;3.35;83.92
66144;SHT31;52947;50.842;6.084;2023-03-04T07:07:06;3.35;84.17
66144;SHT31;52947;50.842;6.084;2023-03-04T07:09:34;3.31;84.25
66144;SHT31;52947;50.842;6.084;2023-03-04T07:12:04;3.31;84.38
66144;SHT31;52947;50.842;6.084;2023-03-04T07:14:34;3.36;84.27
66144;SHT31;52947;50.842;6.084;2023-03-04T07:17:01;3.42;84.13
66144;SHT31;52947;50.842;6.084;2023-03-04T07:19:29;3.40;84.25
66144;SHT31;52947;50.842;6.084;2023-03-04T07:21:57;3.39;84.29
66144;SHT31;52947;50.842;6.084;2023-03-04T07:24:25;3.43;84.38
66144;SHT31;52947;50.842;6.084;2023-03-04T07:26:53;3.45;84.38
66144;SHT31;52947;50.842;6.084;2023-03-04T07:29:21;3.51;84.25
66144;SHT31;52947;50.842;6.084;2023-03-04T07:31:50;3.53;84.26
66144;SHT31;52947;50.842;6.084;2023-03-04T07:34:19;3.51;84.38
66144;SHT31;52947;50.842;6.084;2023-03-04T07:36:47;3.60;84.13
66144;SHT31;52947;50.842;6.084;2023-03-04T07:39:15;3.65;84.27
66144;SHT31;52947;50.842;6.084;2023-03-04T07:41:43;3.67;83.70
66144;SHT31;52947;50.842;6.084;2023-03-04T07:44:11;3.70;83.58
66144;SHT31;52947;50.842;6.084;2023-03-04T07:46:40;3.83;83.33
66144;SHT31;52947;50.842;6.084;2023-03-04T07:49:10;3.85;83.37
66144;SHT31;52947;50.842;6.084;2023-03-04T07:51:39;3.87;83.65
66144;SHT31;52947;50.842;6.084;2023-03-04T07:54:08;3.87;83.55
66144;SHT31;52947;50.842;6.084;2023-03-04T07:56:36;3.91;83.46
66144;SHT31;52947;50.842;6.084;2023-03-04T07:59:04;3.98;83.37
66144;SHT31;52947;50.842;6.084;2023-03-04T08:01:33;3.97;83.56
66144;SHT31;52947;50.842;6.084;2023-03-04T08:04:02;4.03;83.43
66144;SHT31;52947;50.842;6.084;2023-03-04T08:06:32;4.06;83.40
66144;SHT31;52947;50.842;6.084;2023-03-04T08:09:02;4.06;83.35
66144;SHT31;52947;50.842;6.084;2023-03-04T08:11:32;4.10;83.51
66144;SHT31;52947;50.842;6.084;2023-03-04T08:14:00;4.18;83.00
66144;SHT31;52947;50.842;6.084;2023-03-04T08:16:28;4.22;83.22
66144;SHT31;52947;50.842;6.084;2023-03-04T08:18:59;4.24;83.03
66144;SHT31;52947;50.842;6.084;2023-03-04T08:21:28;4.31;83.01
66144;SHT31;52947;50.842;6.084;2023-03-04T08:23:58;4.38;82.61
66144;SHT31;52947;50.842;6.084;2023-03-04T08:26:29;4.44;82.50
66144;SHT31;52947;50.842;6.084;2023-03-04T08:29:00;4.57;82.17
66144;SHT31;52947;50.842;6.084;2023-03-04T08:31:28;4.55;81.74
66144;SHT31;52947;50.842;6.084;2023-03-04T08:33:57;4.64;81.88
66144;SHT31;52947;50.842;6.084;2023-03-04T08:36:24;4.57;81.77
66144;SHT31;52947;50.842;6.084;2023-03-04T08:38:52;4.61;81.95
66144;SHT31;52947;50.842;6.084;2023-03-04T08:41:22;4.61;81.64
66144;SHT31;52947;50.842;6.084;2023-03-04T08:43:51;4.71;81.54
66144;SHT31;52947;50.842;6.084;2023-03-04T08:46:19;4.72;81.45
66144;SHT31;52947;50.842;6.084;2023-03-04T08:48:47;4.75;81.32
66144;SHT31;52947;50.842;6.084;2023-03-04T08:51:15;4.71;81.51
66144;SHT31;52947;50.842;6.084;2023-03-04T08:53:44;4.72;81.71
66144;SHT31;52947;50.842;6.084;2023-03-04T08:56:12;4.65;82.30
66144;SHT31;52947;50.842;6.084;2023-03-04T08:58:41;4.66;82.37
66144;SHT31;52947;50.842;6.084;2023-03-04T09:01:11;4.76;82.57
66144;SHT31;52947;50.842;6.084;2023-03-04T09:03:40;4.85;82.42
66144;SHT31;52947;50.842;6.084;2023-03-04T09:06:11;4.99;81.89
66144;SHT31;52947;50.842;6.084;2023-03-04T09:08:40;5.06;81.28
66144;SHT31;52947;50.842;6.084;2023-03-04T09:11:09;5.12;81.31
66144;SHT31;52947;50.842;6.084;2023-03-04T09:13:37;5.16;81.24
66144;SHT31;52947;50.842;6.084;2023-03-04T09:16:10;5.12;81.28
66144;SHT31;52947;50.842;6.084;2023-03-04T09:18:39;5.16;81.59
66144;SHT31;52947;50.842;6.084;2023-03-04T09:21:08;5.13;81.55
66144;SHT31;52947;50.842;6.084;2023-03-04T09:23:38;5.05;81.42
66144;SHT31;52947;50.842;6.084;2023-03-04T09:26:18;5.01;81.78
66144;SHT31;52947;50.842;6.084;2023-03-04T09:28:49;5.50;82.41
66144;SHT31;52947;50.842;6.084;2023-03-04T09:31:20;6.13;83.14
66144;SHT31;52947;50.842;6.084;2023-03-04T09:33:48;6.47;83.19
66144;SHT31;52947;50.842;6.084;2023-03-04T09:36:16;6.87;80.40
66144;SHT31;52947;50.842;6.084;2023-03-04T09:38:44;6.90;79.60
66144;SHT31;52947;50.842;6.084;2023-03-04T09:41:15;6.91;79.06
66144;SHT31;52947;50.842;6.084;2023-03-04T09:43:44;7.08;79.38
66144;SHT31;52947;50.842;6.084;2023-03-04T09:46:15;6.95;78.97
66144;SHT31;52947;50.842;6.084;2023-03-04T09:48:47;7.25;77.95
66144;SHT31;52947;50.842;6.084;2023-03-04T09:51:21;7.80;77.50
66144;SHT31;52947;50.842;6.084;2023-03-04T09:54:02;8.54;74.36
66144;SHT31;52947;50.842;6.084;2023-03-04T09:56:33;9.37;72.58
66144;SHT31;52947;50.842;6.084;2023-03-04T09:59:08;9.99;69.29
66144;SHT31;52947;50.842;6.084;2023-03-04T10:01:41;9.70;68.68
66144;SHT31;52947;50.842;6.084;2023-03-04T10:04:17;10.09;69.81
66144;SHT31;52947;50.842;6.084;2023-03-04T10:06:47;9.44;70.14
66144;SHT31;52947;50.842;6.084;2023-03-04T10:09:22;8.88;70.73
66144;SHT31;52947;50.842;6.084;2023-03-04T10:11:58;8.34;72.09
66144;SHT31;52947;50.842;6.084;2023-03-04T10:14:32;8.44;73.41
66144;SHT31;52947;50.842;6.084;2023-03-04T10:17:06;9.20;73.52
66144;SHT31;52947;50.842;6.084;2023-03-04T10:19:53;9.57;70.53
66144;SHT31;52947;50.842;6.084;2023-03-04T10:22:28;10.02;70.83
66144;SHT31;52947;50.842;6.084;2023-03-04T10:25:04;10.28;68.64
66144;SHT31;52947;50.842;6.084;2023-03-04T10:27:34;10.89;64.90
66144;SHT31;52947;50.842;6.084;2023-03-04T10:30:05;10.99;64.22
66144;SHT31;52947;50.842;6.084;2023-03-04T10:32:44;11.03;64.57
66144;SHT31;52947;50.842;6.084;2023-03-04T10:35:14;10.96;65.69
66144;SHT31;52947;50.842;6.084;2023-03-04T10:37:45;9.91;68.05
66144;SHT31;52947;50.842;6.084;2023-03-04T10:40:19;9.82;68.90
66144;SHT31;52947;50.842;6.084;2023-03-04T10:42:48;9.82;66.96
66144;SHT31;52947;50.842;6.084;2023-03-04T10:45:22;10.06;66.36
66144;SHT31;52947;50.842;6.084;2023-03-04T10:47:54;10.42;66.48
66144;SHT31;52947;50.842;6.084;2023-03-04T10:50:25;10.67;66.94
66144;SHT31;52947;50.842;6.084;2023-03-04T10:52:54;10.45;66.67
66144;SHT31;52947;50.842;6.084;2023-03-04T10:55:23;9.70;66.29
66144;SHT31;52947;50.842;6.084;2023-03-04T10:57:52;9.67;69.25
66144;SHT31;52947;50.842;6.084;2023-03-04T11:00:27;9.27;69.55
66144;SHT31;52947;50.842;6.084;2023-03-04T11:03:23;8.89;70.21
66144;SHT31;52947;50.842;6.084;2023-03-04T11:06:21;8.79;71.39
66144;SHT31;52947;50.842;6.084;2023-03-04T11:08:52;8.69;70.95
66144;SHT31;52947;50.842;6.084;2023-03-04T11:11:27;8.97;70.99
66144;SHT31;52947;50.842;6.084;2023-03-04T11:14:03;9.19;71.02
66144;SHT31;52947;50.842;6.084;2023-03-04T11:16:33;9.10;70.03
66144;SHT31;52947;50.842;6.084;2023-03-04T11:19:03;9.29;70.26
66144;SHT31;52947;50.842;6.084;2023-03-04T11:21:37;9.95;68.74
66144;SHT31;52947;50.842;6.084;2023-03-04T11:24:12;11.36;65.98
66144;SHT31;52947;50.842;6.084;2023-03-04T11:26:56;11.75;63.22
66144;SHT31;52947;50.842;6.084;2023-03-04T11:29:30;10.94;63.49
66144;SHT31;52947;50.842;6.084;2023-03-04T11:32:04;10.26;65.39
66144;SHT31;52947;50.842;6.084;2023-03-04T11:34:39;9.79;67.82
66144;SHT31;52947;50.842;6.084;2023-03-04T11:37:15;9.29;68.81
66144;SHT31;52947;50.842;6.084;2023-03-04T11:39:48;9.38;70.01
66144;SHT31;52947;50.842;6.084;2023-03-04T11:42:24;9.95;69.21
66144;SHT31;52947;50.842;6.084;2023-03-04T11:44:55;10.11;67.29
66144;SHT31;52947;50.842;6.084;2023-03-04T11:47:40;10.53;66.13
66144;SHT31;52947;50.842;6.084;2023-03-04T11:50:21;10.32;65.59
66144;SHT31;52947;50.842;6.084;2023-03-04T11:53:08;10.18;66.92
66144;SHT31;52947;50.842;6.084;2023-03-04T11:55:45;9.37;67.43
66144;SHT31;52947;50.842;6.084;2023-03-04T11:58:36;8.69;69.66
66144;SHT31;52947;50.842;6.084;2023-03-04T12:01:08;8.61;70.35
66144;SHT31;52947;50.842;6.084;2023-03-04T12:04:10;8.45;70.98
66144;SHT31;52947;50.842;6.084;2023-03-04T12:06:51;8.27;71.50
66144;SHT31;52947;50.842;6.084;2023-03-04T12:09:34;8.06;71.77
66144;SHT31;52947;50.842;6.084;2023-03-04T12:12:21;7.97;72.11
66144;SHT31;52947;50.842;6.084;2023-03-04T12:14:57;7.83;72.38
66144;SHT31;52947;50.842;6.084;2023-03-04T12:17:40;7.73;72.62
66144;SHT31;52947;50.842;6.084;2023-03-04T12:20:22;7.62;72.92
66144;SHT31;52947;50.842;6.084;2023-03-04T12:22:57;7.75;72.56
66144;SHT31;52947;50.842;6.084;2023-03-04T12:25:39;7.84;72.99
66144;SHT31;52947;50.842;6.084;2023-03-04T12:28:23;8.01;72.42
66144;SHT31;52947;50.842;6.084;2023-03-04T12:31:14;7.91;72.67
66144;SHT31;52947;50.842;6.084;2023-03-04T12:33:57;8.00;72.75
66144;SHT31;52947;50.842;6.084;2023-03-04T12:36:32;8.18;71.94
66144;SHT31;52947;50.842;6.084;2023-03-04T12:39:17;8.28;72.18
66144;SHT31;52947;50.842;6.084;2023-03-04T12:41:59;8.27;71.99
66144;SHT31;52947;50.842;6.084;2023-03-04T12:44:33;8.10;72.01
66144;SHT31;52947;50.842;6.084;2023-03-04T12:47:26;8.00;72.57
66144;SHT31;52947;50.842;6.084;2023-03-04T12:50:09;7.79;72.88
66144;SHT31;52947;50.842;6.084;2023-03-04T12:52:49;7.72;73.46
66144;SHT31;52947;50.842;6.084;2023-03-04T12:55:23;7.55;73.47
66144;SHT31;52947;50.842;6.084;2023-03-04T12:57:56;7.42;74.05
66144;SHT31;52947;50.842;6.084;2023-03-04T13:00:33;7.36;74.27
66144;SHT31;52947;50.842;6.084;2023-03-04T13:03:08;7.36;74.74
66144;SHT31;52947;50.842;6.084;2023-03-04T13:05:44;7.29;74.97
66144;SHT31;52947;50.842;6.084;2023-03-04T13:08:27;7.36;74.82
66144;SHT31;52947;50.842;6.084;2023-03-04T13:11:00;7.38;74.43
66144;SHT31;52947;50.842;6.084;2023-03-04T13:13:35;7.41;74.29
66144;SHT31;52947;50.842;6.084;2023-03-04T13:16:05;7.53;74.38
66144;SHT31;52947;50.842;6.084;2023-03-04T13:18:35;7.53;74.39
66144;SHT31;52947;50.842;6.084;2023-03-04T13:21:15;7.82;74.04
66144;SHT31;52947;50.842;6.084;2023-03-04T13:23:44;7.83;73.77
66144;SHT31;52947;50.842;6.084;2023-03-04T13:26:22;7.82;73.82
66144;SHT31;52947;50.842;6.084;2023-03-04T13:29:09;7.79;73.52
66144;SHT31;52947;50.842;6.084;2023-03-04T13:31:57;7.79;73.54
66144;SHT31;52947;50.842;6.084;2023-03-04T13:34:49;7.79;73.75
66144;SHT31;52947;50.842;6.084;2023-03-04T13:37:32;7.83;73.75
66144;SHT31;52947;50.842;6.084;2023-03-04T13:40:23;7.87;73.45
66144;SHT31;52947;50.842;6.084;2023-03-04T13:43:22;7.96;73.22
66144;SHT31;52947;50.842;6.084;2023-03-04T13:45:52;7.86;73.28
66144;SHT31;52947;50.842;6.084;2023-03-04T13:48:22;7.97;73.50
66144;SHT31;52947;50.842;6.084;2023-03-04T13:50:51;7.87;73.72
66144;SHT31;52947;50.842;6.084;2023-03-04T13:53:32;7.87;73.58
66144;SHT31;52947;50.842;6.084;2023-03-04T13:56:28;7.83;73.75
66144;SHT31;52947;50.842;6.084;2023-03-04T13:59:07;7.82;73.80
66144;SHT31;52947;50.842;6.084;2023-03-04T14:01:53;7.77;74.20
66144;SHT31;52947;50.842;6.084;2023-03-04T14:04:26;7.62;74.34
66144;SHT31;52947;50.842;6.084;2023-03-04T14:06:56;7.58;74.75
66144;SHT31;52947;50.842;6.084;2023-03-04T14:09:26;7.65;74.67
66144;SHT31;52947;50.842;6.084;2023-03-04T14:11:56;7.55;74.92
66144;SHT31;52947;50.842;6.084;2023-03-04T14:14:26;7.61;75.11
66144;SHT31;52947;50.842;6.084;2023-03-04T14:16:58;7.49;75.01
66144;SHT31;52947;50.842;6.084;2023-03-04T14:19:28;7.51;75.02
66144;SHT31;52947;50.842;6.084;2023-03-04T14:21:58;7.56;75.59
66144;SHT31;52947;50.842;6.084;2023-03-04T14:24:26;7.51;75.65
66144;SHT31;52947;50.842;6.084;2023-03-04T14:27:09;7.45;75.78
66144;SHT31;52947;50.842;6.084;2023-03-04T14:29:38;7.45;75.86
66144;SHT31;52947;50.842;6.084;2023-03-04T14:32:09;7.48;75.54
66144;SHT31;52947;50.842;6.084;2023-03-04T14:34:39;7.39;75.99
66144;SHT31;52947;50.842;6.084;2023-03-04T14:37:19;7.34;76.47
66144;SHT31;52947;50.842;6.084;2023-03-04T14:39:49;7.25;76.66
66144;SHT31;52947;50.842;6.084;2023-03-04T14:42:20;7.32;77.25
66144;SHT31;52947;50.842;6.084;2023-03-04T14:44:50;7.15;77.53
66144;SHT31;52947;50.842;6.084;2023-03-04T14:47:23;7.21;77.61
66144;SHT31;52947;50.842;6.084;2023-03-04T14:49:53;7.21;77.36
66144;SHT31;52947;50.842;6.084;2023-03-04T14:52:32;7.12;77.65
66144;SHT31;52947;50.842;6.084;2023-03-04T14:55:02;7.02;77.88
66144;SHT31;52947;50.842;6.084;2023-03-04T14:57:36;7.09;78.02
66144;SHT31;52947;50.842;6.084;2023-03-04T15:00:15;7.09;78.16
66144;SHT31;52947;50.842;6.084;2023-03-04T15:02:47;7.11;78.13
66144;SHT31;52947;50.842;6.084;2023-03-04T15:05:18;7.04;78.06
66144;SHT31;52947;50.842;6.084;2023-03-04T15:07:54;7.01;78.18
66144;SHT31;52947;50.842;6.084;2023-03-04T15:10:23;7.01;78.23
66144;SHT31;52947;50.842;6.084;2023-03-04T15:12:53;6.81;78.74
66144;SHT31;52947;50.842;6.084;2023-03-04T15:18:20;6.87;78.84
66144;SHT31;52947;50.842;6.084;2023-03-04T15:20:54;6.97;78.69
66144;SHT31;52947;50.842;6.084;2023-03-04T15:23:23;6.97;78.83
66144;SHT31;52947;50.842;6.084;2023-03-04T15:25:52;6.95;78.80
66144;SHT31;52947;50.842;6.084;2023-03-04T15:28:22;6.94;78.98
66144;SHT31;52947;50.842;6.084;2023-03-04T15:30:50;6.84;79.47
66144;SHT31;52947;50.842;6.084;2023-03-04T15:33:20;6.87;79.08
66144;SHT31;52947;50.842;6.084;2023-03-04T15:35:53;6.84;79.21
66144;SHT31;52947;50.842;6.084;2023-03-04T15:38:21;6.79;79.68
66144;SHT31;52947;50.842;6.084;2023-03-04T15:40:50;6.83;79.28
66144;SHT31;52947;50.842;6.084;2023-03-04T15:43:21;6.81;79.58
66144;SHT31;52947;50.842;6.084;2023-03-04T15:45:50;6.71;79.87
66144;SHT31;52947;50.842;6.084;2023-03-04T15:48:20;6.73;79.63
66144;SHT31;52947;50.842;6.084;2023-03-04T15:50:53;6.71;79.88
66144;SHT31;52947;50.842;6.084;2023-03-04T15:53:29;6.64;79.98
66144;SHT31;52947;50.842;6.084;2023-03-04T15:55:59;6.66;80.16
66144;SHT31;52947;50.842;6.084;2023-03-04T15:58:28;6.71;80.13
66144;SHT31;52947;50.842;6.084;2023-03-04T16:01:00;6.69;80.20
66144;SHT31;52947;50.842;6.084;2023-03-04T16:03:30;6.53;80.34
66144;SHT31;52947;50.842;6.084;2023-03-04T16:05:58;6.53;80.69
66144;SHT31;52947;50.842;6.084;2023-03-04T16:08:26;6.53;80.82
66144;SHT31;52947;50.842;6.084;2023-03-04T16:10:54;6.54;80.79
66144;SHT31;52947;50.842;6.084;2023-03-04T16:13:22;6.52;80.75